ADDS METAR Data INFO
IDs: Format: Raw Decoded Include TAF

Data at: 0903 UTC 20 Oct 2017

KSPI 200852Z AUTO 19005KT 10SM CLR 14/11 A3016 RMK AO2 SLP210 T01440106 53004
KSPI 200752Z AUTO 19006KT 10SM CLR 15/11 A3016 RMK AO2 SLP208 T01500106
KSPI 200652Z AUTO 18008KT 10SM CLR 16/11 A3015 RMK AO2 SLP207 T01610106
KSPI 200552Z AUTO 18008KT 10SM CLR 17/11 A3015 RMK AO2 SLP206 T01670111 10189 20144 402670117 58001
KSPI 200452Z AUTO 17006KT 10SM CLR 17/11 A3015 RMK AO2 SLP208 T01670111
KSPI 200352Z AUTO 17006KT 10SM CLR 16/11 A3016 RMK AO2 SLP209 T01560106
KSPI 200252Z 16005KT 10SM CLR 15/11 A3015 RMK AO2 SLP209 T01500111 51003
KSPI 200152Z 00000KT 10SM CLR 14/11 A3015 RMK AO2 SLP208 T01440106
KSPI 200052Z 18006KT 10SM CLR 18/11 A3016 RMK AO2 SLP211 T01780111
KSPI 192352Z 19006KT 10SM CLR 19/12 A3015 RMK AO2 SLP208 T01890117 10267 20189 53003
KSPI 192252Z 19005KT 10SM CLR 23/11 A3014 RMK AO2 SLP204 T02330111
KSPI 192152Z 21007KT 10SM CLR 26/11 A3013 RMK AO2 SLP201 T02610111
KSPI 192052Z 17008KT 10SM CLR 26/12 A3013 RMK AO2 SLP202 T02610117 56012
KSPI 191952Z 18005KT 10SM CLR 26/12 A3014 RMK AO2 SLP203 T02560117
KSPI 191852Z 15005KT 10SM CLR 25/12 A3015 RMK AO2 SLP208 T02500122
KSPI 191752Z VRB04KT 10SM CLR 24/13 A3017 RMK AO2 SLP214 T02390128 10239 20122 58004
KSPI 191652Z 00000KT 10SM CLR 23/12 A3019 RMK AO2 SLP220 T02280117
KSPI 191552Z 30006KT 10SM CLR 21/11 A3019 RMK AO2 SLP222 T02110106
KSPI 191452Z 23006KT 10SM CLR 18/11 A3018 RMK AO2 SLP219 T01830111 53015
KSPI 191352Z 22006KT 10SM CLR 16/11 A3016 RMK AO2 SLP213 T01560106
KSPI 191252Z 23005KT 10SM CLR 13/09 A3015 RMK AO2 SLP209 T01280094
KSPI 191152Z 23004KT 10SM CLR 12/09 A3014 RMK AO2 SLP204 T01220094 10133 20117 53009
KSPI 191052Z COR 21007KT 10SM CLR 12/09 A3013 RMK AO2 SLP200 T01220094
KSPI 190952Z AUTO 21005KT 10SM CLR 13/09 A3011 RMK AO2 SLP195 T01280094
KSPI 190852Z AUTO 21005KT 10SM CLR 13/09 A3011 RMK AO2 SLP194 T01280094 53001
KSPI 190752Z AUTO 20005KT 10SM CLR 12/09 A3011 RMK AO2 SLP193 T01220089
KSPI 190652Z AUTO 20005KT 10SM CLR 13/09 A3010 RMK AO2 SLP192 T01330094
KSPI 190552Z AUTO 20004KT 10SM CLR 13/09 A3011 RMK AO2 SLP193 T01330094 10189 20133 402330089 50006
KSPI 190452Z AUTO 19005KT 10SM CLR 14/09 A3011 RMK AO2 SLP194 T01390089
KSPI 190352Z AUTO 18006KT 10SM CLR 14/09 A3010 RMK AO2 SLP191 T01440089
KSPI 190252Z 18008KT 10SM CLR 17/09 A3009 RMK AO2 SLP186 T01670089 53003
KSPI 190152Z 19010KT 10SM CLR 17/08 A3008 RMK AO2 SLP185 T01720083
KSPI 190052Z 18008KT 10SM CLR 18/08 A3008 RMK AO2 SLP186 T01780083
KSPI 182352Z 18008KT 10SM CLR 19/08 A3008 RMK AO2 SLP185 T01890083 10233 20189 56002
KSPI 182252Z 19009KT 10SM CLR 21/07 A3008 RMK AO2 SLP185 T02110072
KSPI 182152Z 19011KT 10SM CLR 22/07 A3007 RMK AO2 SLP183 T02220067